createdAt,value
2023-02-18T00:01:37.497Z,32.40
2023-02-18T00:04:07.028Z,27.20
2023-02-18T00:06:37.058Z,33.90
2023-02-18T00:09:06.468Z,31.87
2023-02-18T00:11:39.631Z,33.83
2023-02-18T00:14:12.919Z,35.00
2023-02-18T00:16:41.219Z,30.73
2023-02-18T00:19:14.265Z,32.37
2023-02-18T00:21:42.484Z,31.07
2023-02-18T00:24:12.545Z,32.07
2023-02-18T00:26:40.630Z,38.50
2023-02-18T00:29:08.936Z,39.77
2023-02-18T00:31:38.666Z,35.17
2023-02-18T00:34:07.020Z,34.23
2023-02-18T00:36:36.920Z,37.53
2023-02-18T00:39:09.568Z,38.87
2023-02-18T00:41:38.407Z,30.47
2023-02-18T00:44:07.180Z,31.57
2023-02-18T00:46:36.203Z,34.03
2023-02-18T00:49:05.206Z,37.67
2023-02-18T00:51:33.284Z,33.63
2023-02-18T00:54:02.920Z,34.43
2023-02-18T00:56:30.994Z,33.47
2023-02-18T00:58:59.057Z,39.00
2023-02-18T01:01:28.000Z,33.67
2023-02-18T01:03:56.140Z,36.03
2023-02-18T01:06:24.261Z,36.43
2023-02-18T01:08:52.368Z,35.20
2023-02-18T01:11:21.939Z,34.97
2023-02-18T01:13:50.350Z,34.90
2023-02-18T01:16:18.704Z,35.23
2023-02-18T01:18:46.909Z,32.00
2023-02-18T01:21:15.097Z,37.20
2023-02-18T01:23:43.677Z,38.87
2023-02-18T01:26:12.470Z,34.93
2023-02-18T01:28:42.788Z,37.37
2023-02-18T01:31:13.708Z,33.13
2023-02-18T01:33:42.616Z,35.33
2023-02-18T01:36:12.066Z,34.50
2023-02-18T01:38:40.725Z,33.70
2023-02-18T01:41:09.192Z,33.40
2023-02-18T01:43:37.809Z,33.10
2023-02-18T01:46:14.121Z,40.17
2023-02-18T01:48:45.225Z,34.37
2023-02-18T01:51:15.906Z,33.90
2023-02-18T01:53:51.953Z,34.40
2023-02-18T01:56:27.081Z,30.87
2023-02-18T01:58:58.019Z,36.67
2023-02-18T02:01:28.468Z,39.10
2023-02-18T02:03:56.952Z,34.00
2023-02-18T02:06:26.162Z,32.93
2023-02-18T02:08:57.579Z,38.63
2023-02-18T02:11:36.314Z,38.07
2023-02-18T02:14:20.653Z,36.93
2023-02-18T02:16:58.430Z,40.13
2023-02-18T02:20:08.283Z,40.17
2023-02-18T02:23:12.050Z,37.63
2023-02-18T02:26:12.374Z,36.17
2023-02-18T02:29:02.418Z,38.63
2023-02-18T02:31:48.104Z,37.00
2023-02-18T02:34:38.775Z,35.43
2023-02-18T02:37:15.537Z,41.70
2023-02-18T02:39:56.598Z,33.40
2023-02-18T02:42:33.117Z,39.87
2023-02-18T02:45:07.574Z,39.37
2023-02-18T02:47:45.321Z,33.90
2023-02-18T02:50:22.188Z,31.57
2023-02-18T02:52:54.424Z,34.10
2023-02-18T02:55:22.686Z,32.33
2023-02-18T02:57:53.069Z,34.80
2023-02-18T03:08:39.978Z,34.57
2023-02-18T03:11:11.805Z,32.53
2023-02-18T03:13:54.935Z,30.57
2023-02-18T03:16:28.880Z,39.60
2023-02-18T03:19:04.352Z,35.57
2023-02-18T03:21:36.435Z,39.57
2023-02-18T03:24:11.535Z,43.17
2023-02-18T03:26:44.753Z,34.20
2023-02-18T03:29:15.458Z,43.07
2023-02-18T03:31:47.753Z,43.20
2023-02-18T03:34:19.798Z,39.13
2023-02-18T03:36:48.376Z,43.27
2023-02-18T03:39:19.731Z,49.73
2023-02-18T03:41:48.000Z,45.37
2023-02-18T03:44:16.368Z,42.63
2023-02-18T03:46:45.568Z,41.60
2023-02-18T04:04:37.855Z,24.10
2023-02-18T04:07:05.993Z,26.90
2023-02-18T04:09:34.074Z,25.43
2023-02-18T04:12:02.167Z,20.07
2023-02-18T04:14:30.251Z,19.40
2023-02-18T04:16:58.313Z,17.93
2023-02-18T04:19:26.440Z,19.67
2023-02-18T04:21:55.875Z,15.63
2023-02-18T04:24:23.932Z,14.97
2023-02-18T04:26:52.046Z,18.83
2023-02-18T04:29:20.162Z,13.33
2023-02-18T04:31:48.288Z,12.97
2023-02-18T04:34:16.360Z,14.60
2023-02-18T04:36:44.449Z,12.73
2023-02-18T04:39:14.000Z,11.23
2023-02-18T04:41:42.103Z,12.60
2023-02-18T04:44:10.170Z,11.50
2023-02-18T04:46:38.462Z,9.37
2023-02-18T04:49:06.604Z,10.83
2023-02-18T04:51:34.699Z,11.13
2023-02-18T04:54:02.762Z,10.20
2023-02-18T04:56:32.186Z,8.13
2023-02-18T04:59:00.323Z,10.70
2023-02-18T05:01:28.455Z,9.60
2023-02-18T05:03:56.654Z,9.50
2023-02-18T05:06:24.804Z,7.53
2023-02-18T05:08:52.904Z,7.77
2023-02-18T05:11:21.018Z,10.83
2023-02-18T05:13:50.473Z,10.30
2023-02-18T05:16:18.551Z,8.63
2023-02-18T05:18:46.623Z,9.50
2023-02-18T05:21:14.788Z,8.43
2023-02-18T05:23:42.894Z,8.03
2023-02-18T05:26:11.339Z,7.53
2023-02-18T05:28:39.518Z,7.20
2023-02-18T05:31:09.013Z,7.93
2023-02-18T05:33:37.228Z,10.00
2023-02-18T05:36:06.189Z,6.77
2023-02-18T05:38:34.294Z,8.47
2023-02-18T05:41:03.053Z,9.20
2023-02-18T05:43:31.255Z,9.43
2023-02-18T05:45:59.382Z,8.03
2023-02-18T05:48:28.884Z,10.53
2023-02-18T05:50:56.953Z,8.97
2023-02-18T05:53:25.041Z,9.30
2023-02-18T05:55:53.142Z,8.27
2023-02-18T05:58:21.330Z,8.97
2023-02-18T06:00:49.444Z,8.60
2023-02-18T06:03:17.527Z,9.43
2023-02-18T06:05:50.330Z,9.03
2023-02-18T06:08:20.080Z,8.23
2023-02-18T06:10:48.409Z,9.63
2023-02-18T06:13:16.603Z,9.30
2023-02-18T06:15:44.828Z,7.93
2023-02-18T06:18:13.017Z,8.13
2023-02-18T06:20:41.990Z,8.33
2023-02-18T06:23:11.758Z,7.70
2023-02-18T06:25:39.918Z,7.80
2023-02-18T06:28:08.107Z,8.70
2023-02-18T06:30:36.452Z,7.50
2023-02-18T06:33:04.976Z,6.43
2023-02-18T06:35:33.542Z,8.93
2023-02-18T06:38:01.835Z,7.77
2023-02-18T06:40:31.740Z,7.13
2023-02-18T06:42:59.841Z,7.10
2023-02-18T06:45:28.294Z,7.50
2023-02-18T06:47:57.594Z,7.77
2023-02-18T06:50:25.728Z,7.30
2023-02-18T06:52:53.839Z,8.73
2023-02-18T06:55:21.936Z,7.10
2023-02-18T06:57:51.455Z,7.23
2023-02-18T07:00:20.197Z,6.27
2023-02-18T07:02:48.365Z,5.87
2023-02-18T07:05:16.742Z,5.97
2023-02-18T07:07:44.957Z,6.83
2023-02-18T07:10:13.630Z,7.00
2023-02-18T07:12:41.736Z,6.30
2023-02-18T07:15:12.078Z,5.83
2023-02-18T07:17:40.430Z,5.33
2023-02-18T07:20:09.912Z,5.63
2023-02-18T07:22:38.049Z,6.37
2023-02-18T07:25:06.578Z,7.93
2023-02-18T07:27:34.795Z,5.40
2023-02-18T07:30:02.962Z,4.90
2023-02-18T07:32:32.927Z,5.60
2023-02-18T07:35:01.031Z,5.40
2023-02-18T07:37:29.275Z,5.50
2023-02-18T07:39:57.499Z,2.50
2023-02-18T07:42:25.844Z,4.20
2023-02-18T07:44:54.072Z,4.63
2023-02-18T07:47:22.915Z,3.53
2023-02-18T07:49:52.397Z,4.13
2023-02-18T07:52:20.504Z,3.40
2023-02-18T07:54:48.848Z,6.10
2023-02-18T07:57:17.047Z,5.27
2023-02-18T07:59:45.136Z,5.10
2023-02-18T08:02:20.358Z,5.23
2023-02-18T08:04:49.310Z,10.83
2023-02-18T08:07:20.712Z,13.00
2023-02-18T08:09:50.809Z,17.43
2023-02-18T08:12:19.241Z,10.53
2023-02-18T08:14:47.396Z,12.27
2023-02-18T08:17:15.516Z,10.47
2023-02-18T08:19:43.736Z,11.27
2023-02-18T08:22:11.852Z,11.67
2023-02-18T08:24:41.393Z,12.87
2023-02-18T08:27:09.511Z,10.87
2023-02-18T08:29:37.645Z,15.37
2023-02-18T08:32:06.146Z,13.63
2023-02-18T08:34:34.307Z,9.43
2023-02-18T08:37:03.601Z,13.07
2023-02-18T08:39:35.530Z,10.87
2023-02-18T08:42:05.492Z,10.43
2023-02-18T08:44:33.619Z,11.30
2023-02-18T08:47:01.780Z,8.30
2023-02-18T08:49:29.960Z,9.80
2023-02-18T08:51:58.657Z,9.63
2023-02-18T08:54:26.799Z,8.27
2023-02-18T08:56:57.740Z,8.23
2023-02-18T08:59:27.457Z,12.53
2023-02-18T09:01:55.694Z,12.53
2023-02-18T09:04:23.939Z,14.03
2023-02-18T09:06:52.115Z,8.13
2023-02-18T09:09:20.268Z,10.27
2023-02-18T09:11:48.520Z,10.17
2023-02-18T09:14:16.819Z,11.73
2023-02-18T09:16:46.452Z,8.03
2023-02-18T09:19:14.622Z,9.33
2023-02-18T09:21:42.721Z,10.87
2023-02-18T09:24:10.950Z,12.97
2023-02-18T09:26:40.335Z,8.90
2023-02-18T09:29:08.440Z,11.13
2023-02-18T09:31:38.126Z,11.53
2023-02-18T09:34:07.754Z,16.10
2023-02-18T09:36:35.963Z,11.10
2023-02-18T09:39:04.084Z,9.90
2023-02-18T09:41:40.319Z,10.43
2023-02-18T09:44:14.648Z,13.20
2023-02-18T09:46:49.920Z,11.40
2023-02-18T09:49:24.242Z,12.60
2023-02-18T09:51:53.262Z,10.87
2023-02-18T09:54:22.705Z,10.07
2023-02-18T09:56:53.103Z,11.47
2023-02-18T09:59:24.062Z,13.83
2023-02-18T10:01:54.654Z,8.83
2023-02-18T10:04:30.309Z,7.13
2023-02-18T10:06:59.758Z,15.07
2023-02-18T10:09:34.366Z,13.43
2023-02-18T10:12:12.348Z,10.33
2023-02-18T10:14:40.499Z,11.80
2023-02-18T10:17:09.627Z,10.77
2023-02-18T10:19:41.418Z,7.77
2023-02-18T10:22:14.695Z,9.07
2023-02-18T10:24:47.164Z,11.73
2023-02-18T10:27:22.341Z,8.47
2023-02-18T10:29:51.034Z,8.53
2023-02-18T10:32:23.810Z,4.00
2023-02-18T10:35:01.043Z,14.90
2023-02-18T10:37:55.965Z,6.63
2023-02-18T10:40:30.940Z,9.23
2023-02-18T10:43:08.022Z,9.00
2023-02-18T10:45:45.580Z,9.30
2023-02-18T10:48:29.477Z,9.50
2023-02-18T10:51:02.948Z,10.60
2023-02-18T10:53:35.531Z,9.63
2023-02-18T10:56:04.317Z,8.13
2023-02-18T10:58:35.040Z,7.37
2023-02-18T11:01:08.565Z,7.37
2023-02-18T11:03:43.174Z,6.57
2023-02-18T11:06:22.869Z,5.77
2023-02-18T11:08:51.822Z,7.87
2023-02-18T11:11:26.552Z,9.67
2023-02-18T11:13:55.866Z,8.23
2023-02-18T11:16:25.074Z,8.40
2023-02-18T11:18:56.011Z,14.60
2023-02-18T11:21:34.420Z,12.80
2023-02-18T11:24:09.473Z,8.37
2023-02-18T11:26:40.145Z,7.37
2023-02-18T11:29:16.377Z,9.40
2023-02-18T11:31:47.304Z,8.47
2023-02-18T11:34:18.526Z,6.93
2023-02-18T11:36:49.710Z,6.67
2023-02-18T11:39:22.363Z,8.07
2023-02-18T11:41:57.039Z,7.43
2023-02-18T11:44:30.950Z,9.30
2023-02-18T11:47:02.507Z,10.60
2023-02-18T11:49:31.313Z,7.87
2023-02-18T11:52:15.553Z,9.17
2023-02-18T11:54:43.754Z,7.60
2023-02-18T11:57:15.447Z,5.17
2023-02-18T11:59:44.844Z,8.80
2023-02-18T12:02:29.109Z,10.33
2023-02-18T12:05:02.638Z,8.97
2023-02-18T12:07:42.499Z,4.97
2023-02-18T12:10:16.721Z,3.90
2023-02-18T12:12:49.391Z,8.60
2023-02-18T12:15:22.528Z,10.60
2023-02-18T12:18:05.772Z,9.07
2023-02-18T12:20:48.505Z,7.57
2023-02-18T12:23:28.841Z,10.77
2023-02-18T12:26:04.056Z,11.13
2023-02-18T12:28:58.551Z,6.50
2023-02-18T12:31:48.864Z,4.03
2023-02-18T12:34:37.521Z,10.27
2023-02-18T12:37:30.434Z,5.40
2023-02-18T12:40:16.816Z,3.77
2023-02-18T12:42:55.669Z,7.47
2023-02-18T12:45:42.764Z,7.67
2023-02-18T12:48:32.748Z,9.17
2023-02-18T12:51:25.354Z,4.97
2023-02-18T12:54:19.722Z,10.40
2023-02-18T12:57:14.792Z,9.53
2023-02-18T13:00:05.512Z,7.30
2023-02-18T13:03:02.270Z,6.57
2023-02-18T13:05:39.411Z,7.77
2023-02-18T13:08:29.652Z,9.03
2023-02-18T13:11:10.738Z,10.47
2023-02-18T13:13:44.188Z,6.33
2023-02-18T13:16:15.074Z,9.43
2023-02-18T13:18:48.588Z,8.70
2023-02-18T13:21:18.137Z,6.53
2023-02-18T13:23:54.234Z,7.40
2023-02-18T13:26:26.141Z,6.20
2023-02-18T13:29:08.002Z,11.43
2023-02-18T13:31:44.187Z,9.30
2023-02-18T13:34:18.425Z,5.70
2023-02-18T13:36:55.817Z,7.70
2023-02-18T13:39:25.311Z,8.83
2023-02-18T13:42:11.529Z,4.23
2023-02-18T13:45:08.049Z,7.97
2023-02-18T13:47:41.158Z,6.73
2023-02-18T13:50:27.635Z,9.40
2023-02-18T13:53:19.270Z,9.23
2023-02-18T13:55:56.995Z,6.13
2023-02-18T13:58:30.977Z,11.90
2023-02-18T14:01:04.892Z,4.03
2023-02-18T14:03:38.276Z,10.30
2023-02-18T14:06:25.149Z,6.90
2023-02-18T14:09:03.887Z,10.50
2023-02-18T14:11:41.570Z,8.73
2023-02-18T14:14:38.574Z,10.10
2023-02-18T14:17:38.614Z,6.03
2023-02-18T14:20:32.950Z,6.57
2023-02-18T14:23:01.246Z,6.40
2023-02-18T14:25:37.706Z,10.03
2023-02-18T14:28:40.450Z,10.10
2023-02-18T14:31:31.178Z,8.90
2023-02-18T14:34:26.457Z,9.97
2023-02-18T14:37:03.602Z,8.07
2023-02-18T14:39:41.391Z,7.33
2023-02-18T14:42:21.265Z,7.23
2023-02-18T14:45:20.480Z,8.83
2023-02-18T14:48:23.652Z,9.43
2023-02-18T14:50:54.099Z,6.60
2023-02-18T14:53:24.731Z,7.57
2023-02-18T14:55:56.452Z,7.60
2023-02-18T14:58:32.645Z,6.63
2023-02-18T15:01:07.797Z,9.57
2023-02-18T15:03:36.033Z,9.43
2023-02-18T15:06:07.526Z,9.03
2023-02-18T15:08:40.488Z,10.47
2023-02-18T15:11:09.439Z,10.43
2023-02-18T15:13:43.943Z,6.60
2023-02-18T15:16:17.727Z,7.13
2023-02-18T15:18:52.839Z,6.13
2023-02-18T15:21:26.920Z,5.03
2023-02-18T15:23:55.270Z,8.30
2023-02-18T15:26:23.381Z,10.17
2023-02-18T15:28:59.550Z,7.17
2023-02-18T15:31:28.880Z,9.50
2023-02-18T15:33:57.553Z,10.10
2023-02-18T15:36:28.220Z,7.53
2023-02-18T15:38:58.743Z,9.97
2023-02-18T15:41:27.072Z,4.87
2023-02-18T15:43:57.859Z,5.27
2023-02-18T15:46:26.692Z,7.60
2023-02-18T15:48:57.139Z,8.53
2023-02-18T15:51:28.746Z,9.83
2023-02-18T15:53:59.770Z,11.60
2023-02-18T15:56:32.471Z,5.23
2023-02-18T15:59:11.307Z,10.03
2023-02-18T16:01:39.539Z,9.50
2023-02-18T16:04:08.546Z,8.53
2023-02-18T16:06:40.483Z,9.47
2023-02-18T16:09:16.992Z,8.67
2023-02-18T16:11:48.707Z,7.77
2023-02-18T16:14:29.688Z,6.87
2023-02-18T16:17:13.816Z,6.57
2023-02-18T16:20:03.337Z,8.53
2023-02-18T16:22:44.266Z,8.67
2023-02-18T16:25:20.676Z,7.80
2023-02-18T16:27:52.643Z,6.20
2023-02-18T16:30:23.595Z,11.03
2023-02-18T16:32:54.954Z,9.20
2023-02-18T16:35:24.156Z,4.23
2023-02-18T16:37:57.360Z,5.80
2023-02-18T16:40:29.278Z,10.73
2023-02-18T16:42:59.099Z,8.53
2023-02-18T16:45:35.588Z,9.30
2023-02-18T16:48:04.920Z,7.43
2023-02-18T16:50:34.615Z,8.57
2023-02-18T16:53:04.137Z,6.60
2023-02-18T16:55:32.368Z,10.27
2023-02-18T16:58:00.579Z,7.33
2023-02-18T17:00:28.753Z,13.80
2023-02-18T17:02:59.902Z,12.80
2023-02-18T17:05:29.850Z,8.17
2023-02-18T17:08:06.155Z,7.27
2023-02-18T17:10:36.576Z,11.47
2023-02-18T17:13:04.658Z,8.23
2023-02-18T17:15:35.505Z,7.37
2023-02-18T17:18:04.815Z,6.80
2023-02-18T17:20:34.289Z,7.53
2023-02-18T17:23:02.427Z,8.47
2023-02-18T17:25:33.145Z,11.37
2023-02-18T17:28:03.177Z,5.63
2023-02-18T17:30:32.984Z,10.90
2023-02-18T17:33:05.012Z,14.27
2023-02-18T17:35:33.540Z,8.27
2023-02-18T17:45:55.506Z,9.97
2023-02-18T17:48:23.687Z,13.47
2023-02-18T17:50:52.298Z,12.37
2023-02-18T17:53:20.721Z,13.73
2023-02-18T17:55:50.092Z,13.63
2023-02-18T17:58:18.465Z,12.67
2023-02-18T18:00:48.953Z,9.10
2023-02-18T18:03:19.068Z,15.67
2023-02-18T18:05:49.557Z,16.43
2023-02-18T18:08:18.153Z,8.97
2023-02-18T18:10:50.539Z,13.93
2023-02-18T18:13:22.527Z,13.83
2023-02-18T18:15:50.922Z,14.33
2023-02-18T18:18:21.137Z,16.67
2023-02-18T18:20:52.234Z,12.23
2023-02-18T18:23:22.872Z,13.33
2023-02-18T18:25:55.978Z,15.77
2023-02-18T18:28:26.893Z,15.57
2023-02-18T18:30:56.727Z,14.50
2023-02-18T18:33:28.371Z,14.73
2023-02-18T18:35:58.511Z,14.53
2023-02-18T18:38:28.245Z,14.90
2023-02-18T18:40:57.253Z,14.77
2023-02-18T18:43:34.332Z,11.53
2023-02-18T18:46:02.683Z,10.70
2023-02-18T18:48:32.187Z,8.63
2023-02-18T18:51:01.514Z,14.10
2023-02-18T18:53:31.226Z,11.20
2023-02-18T18:56:01.376Z,9.10
2023-02-18T18:58:29.546Z,5.83
2023-02-18T19:01:00.530Z,7.87
2023-02-18T19:03:33.661Z,4.57
2023-02-18T19:06:01.833Z,7.00
2023-02-18T19:08:31.921Z,9.20
2023-02-18T19:11:02.871Z,13.67
2023-02-18T19:13:36.804Z,14.40
2023-02-18T19:16:08.530Z,17.13
2023-02-18T19:18:38.198Z,22.00
2023-02-18T19:21:06.609Z,17.87
2023-02-18T19:23:36.462Z,16.93
2023-02-18T19:26:05.149Z,16.03
2023-02-18T19:28:33.327Z,17.80
2023-02-18T19:31:01.520Z,19.10
2023-02-18T19:33:29.839Z,23.00
2023-02-18T19:36:02.109Z,23.93
2023-02-18T19:38:30.332Z,19.80
2023-02-18T19:40:58.394Z,17.70
2023-02-18T19:43:26.515Z,21.10
2023-02-18T19:45:56.621Z,25.37
2023-02-18T19:48:24.809Z,19.93
2023-02-18T19:50:54.651Z,20.37
2023-02-18T19:53:24.116Z,26.40
2023-02-18T19:56:00.726Z,23.77
2023-02-18T19:58:30.853Z,22.33
2023-02-18T20:01:00.914Z,24.67
2023-02-18T20:03:29.435Z,23.17
2023-02-18T20:05:57.594Z,20.40
2023-02-18T20:08:27.269Z,22.73
2023-02-18T20:10:58.741Z,22.60
2023-02-18T20:13:27.062Z,24.87
2023-02-18T20:15:55.321Z,22.93
2023-02-18T20:18:23.389Z,21.27
2023-02-18T20:20:52.315Z,24.97
2023-02-18T20:23:20.460Z,30.30
2023-02-18T20:25:49.963Z,27.77
2023-02-18T20:28:18.114Z,21.90
2023-02-18T20:30:46.235Z,25.37
2023-02-18T20:33:14.356Z,23.53
2023-02-18T20:35:42.437Z,25.17
2023-02-18T20:38:10.504Z,27.43
2023-02-18T20:40:38.628Z,23.10
2023-02-18T20:43:08.118Z,23.20
2023-02-18T20:45:36.356Z,24.37
2023-02-18T20:48:04.618Z,22.60
2023-02-18T20:50:32.823Z,25.17
2023-02-18T20:53:01.033Z,26.90
2023-02-18T20:55:29.138Z,26.40
2023-02-18T20:57:57.333Z,22.67
2023-02-18T21:00:26.821Z,24.90
2023-02-18T21:02:55.080Z,22.87
2023-02-18T21:05:23.295Z,24.10
2023-02-18T21:07:51.394Z,22.43
2023-02-18T21:10:21.250Z,22.60
2023-02-18T21:12:49.463Z,25.50
2023-02-18T21:15:17.685Z,27.23
2023-02-18T21:17:47.124Z,26.20
2023-02-18T21:20:15.297Z,30.77
2023-02-18T21:22:43.565Z,30.23
2023-02-18T21:25:13.169Z,29.17
2023-02-18T21:27:41.318Z,27.60
2023-02-18T21:30:10.635Z,24.80
2023-02-18T21:32:38.730Z,25.43
2023-02-18T21:35:08.528Z,24.43
2023-02-18T21:37:36.995Z,28.73
2023-02-18T21:40:08.646Z,26.43
2023-02-18T21:42:36.956Z,31.60
2023-02-18T21:45:05.767Z,26.40
2023-02-18T21:47:34.079Z,24.63
2023-02-18T21:50:02.383Z,30.93
2023-02-18T21:52:32.436Z,24.07
2023-02-18T21:55:00.602Z,28.90
2023-02-18T21:57:28.929Z,29.67
2023-02-18T21:59:57.081Z,24.63
2023-02-18T22:02:28.070Z,24.10
2023-02-18T22:04:56.246Z,27.90
2023-02-18T22:07:26.080Z,26.63
2023-02-18T22:09:56.346Z,30.77
2023-02-18T22:12:26.393Z,29.20
2023-02-18T22:14:54.564Z,28.90
2023-02-18T22:28:59.207Z,28.57
2023-02-18T22:31:29.475Z,34.57
2023-02-18T22:33:59.116Z,35.30
2023-02-18T22:36:28.534Z,34.63
2023-02-18T22:38:57.341Z,31.00
2023-02-18T22:41:26.910Z,34.50
2023-02-18T22:43:57.094Z,32.00
2023-02-18T22:46:25.377Z,29.37
2023-02-18T22:48:53.939Z,35.90
2023-02-18T22:51:25.170Z,36.40
2023-02-18T22:53:54.545Z,33.20
2023-02-18T22:56:24.481Z,35.50
2023-02-18T22:58:54.588Z,32.37
2023-02-18T23:01:26.600Z,33.67
2023-02-18T23:03:55.134Z,31.90
2023-02-18T23:06:24.300Z,27.37
2023-02-18T23:08:52.524Z,31.17
2023-02-18T23:11:21.354Z,25.87
2023-02-18T23:14:10.390Z,29.03
2023-02-18T23:16:54.103Z,27.33
2023-02-18T23:19:22.290Z,32.77
2023-02-18T23:21:50.482Z,32.90
2023-02-18T23:24:19.202Z,26.07
2023-02-18T23:26:47.386Z,26.63
2023-02-18T23:29:16.052Z,30.07
2023-02-18T23:31:45.792Z,24.40
2023-02-18T23:34:15.788Z,31.83
2023-02-18T23:36:46.037Z,26.00
2023-02-18T23:39:17.136Z,24.27
2023-02-18T23:41:45.542Z,21.20
2023-02-18T23:44:15.337Z,22.13
2023-02-18T23:46:45.626Z,22.47
2023-02-18T23:49:16.162Z,21.03
2023-02-18T23:51:44.500Z,27.23
2023-02-18T23:54:13.068Z,19.50
2023-02-18T23:56:41.602Z,21.47
2023-02-18T23:59:09.791Z,22.70
